Time;durP1;ratioP1;P1;durP2;ratioP2;P2;SDS_P1;SDS_P2;PMS_P1;PMS_P2;Temp;Humidity;BMP_temperature;BMP_pressure;BME280_temperature;BME280_humidity;BME280_pressure;Samples;Min_cycle;Max_cycle;Signal;HPM_P1;HPM_P2
2021/12/15 00:02:20;;;;;;;45.30;17.52;;;9.70;99.90;;;;;;5033377;28;20077;-78
2021/12/15 00:04:50;;;;;;;39.20;18.88;;;9.60;99.90;;;;;;5049354;28;20503;-82
2021/12/15 00:07:20;;;;;;;44.65;19.77;;;9.60;99.90;;;;;;5049843;28;20049;-82
2021/12/15 00:09:47;;;;;;;42.15;18.10;;;9.60;99.90;;;;;;5032744;28;20041;-81
2021/12/15 00:12:14;;;;;;;40.42;17.23;;;9.60;99.90;;;;;;5049879;28;20048;-82
2021/12/15 00:14:41;;;;;;;37.80;17.88;;;9.60;99.90;;;;;;5032920;28;20072;-79
2021/12/15 00:17:07;;;;;;;33.75;15.60;;;9.60;99.90;;;;;;5033079;28;20069;-79
2021/12/15 00:19:33;;;;;;;47.95;20.77;;;9.60;99.90;;;;;;5033109;28;20046;-82
2021/12/15 00:21:59;;;;;;;43.20;18.92;;;9.60;99.90;;;;;;5032928;28;20056;-82
2021/12/15 00:24:25;;;;;;;54.65;21.38;;;9.60;99.90;;;;;;5032464;28;20124;-80
2021/12/15 00:26:53;;;;;;;48.45;18.30;;;9.60;99.90;;;;;;5032797;28;20044;-79
2021/12/15 00:29:19;;;;;;;40.47;18.77;;;9.60;99.90;;;;;;5049388;28;19921;-79
2021/12/15 00:31:46;;;;;;;40.60;20.52;;;9.70;99.90;;;;;;5049723;28;20447;-79
2021/12/15 00:34:12;;;;;;;44.83;19.13;;;9.60;99.90;;;;;;5032600;28;20072;-82
2021/12/15 00:36:39;;;;;;;28.05;12.63;;;9.70;99.90;;;;;;5016146;28;20049;-83
2021/12/15 00:39:06;;;;;;;35.05;13.90;;;9.60;99.90;;;;;;5016041;28;20049;-80
2021/12/15 00:41:32;;;;;;;41.70;20.02;;;9.60;99.90;;;;;;5049110;28;20053;-79
2021/12/15 00:43:58;;;;;;;36.97;17.70;;;9.60;99.90;;;;;;5032669;28;20103;-82
2021/12/15 00:46:24;;;;;;;40.70;19.10;;;9.70;99.90;;;;;;5048925;28;20049;-83
2021/12/15 00:48:50;;;;;;;35.85;16.20;;;9.70;99.90;;;;;;5032215;28;20488;-79
2021/12/15 00:51:16;;;;;;;33.15;12.48;;;9.60;99.90;;;;;;4999886;28;20046;-79
2021/12/15 00:53:42;;;;;;;40.50;17.83;;;9.60;99.90;;;;;;4998765;28;20064;-83
2021/12/15 00:56:08;;;;;;;39.33;16.52;;;9.60;99.90;;;;;;5048955;28;20046;-82
2021/12/15 00:58:33;;;;;;;27.48;13.45;;;9.60;99.90;;;;;;5048668;28;20044;-82
2021/12/15 01:01:01;;;;;;;26.23;11.73;;;9.70;99.90;;;;;;4999899;28;20148;-83
2021/12/15 01:03:29;;;;;;;30.42;15.32;;;9.70;99.90;;;;;;5031933;28;20064;-82
2021/12/15 01:06:03;;;;;;;41.55;18.20;;;9.70;99.90;;;;;;5032337;28;20041;-79
2021/12/15 01:08:31;;;;;;;28.60;13.20;;;9.70;99.90;;;;;;5031431;28;20049;-82
2021/12/15 01:11:20;;;;;;;36.53;16.65;;;9.70;99.90;;;;;;5032155;28;20045;-79
2021/12/15 01:19:48;;;;;;;32.38;15.52;;;9.70;99.90;;;;;;5046662;28;20053;-79
2021/12/15 01:22:15;;;;;;;52.38;20.10;;;9.70;99.90;;;;;;5032183;28;20513;-79
2021/12/15 01:24:41;;;;;;;41.20;19.77;;;9.70;99.90;;;;;;5031938;28;20045;-82
2021/12/15 01:27:07;;;;;;;20.38;11.38;;;9.70;99.90;;;;;;5014993;28;20056;-79
2021/12/15 01:29:33;;;;;;;44.90;17.45;;;9.70;99.90;;;;;;5031852;28;20120;-82
2021/12/15 01:31:59;;;;;;;28.02;14.32;;;9.70;99.90;;;;;;5031556;28;20045;-79
2021/12/15 01:34:24;;;;;;;43.33;21.80;;;9.70;99.90;;;;;;5031790;28;20048;-82
2021/12/15 01:36:50;;;;;;;33.78;15.35;;;9.70;99.90;;;;;;5031966;28;20145;-80
2021/12/15 01:39:16;;;;;;;24.50;11.90;;;9.70;99.90;;;;;;5031500;28;20045;-79
2021/12/15 01:41:43;;;;;;;44.80;20.52;;;9.60;99.90;;;;;;5014987;28;20042;-82
2021/12/15 01:46:59;;;;;;;42.30;22.75;;;9.60;99.90;;;;;;5031366;28;20046;-83
2021/12/15 01:49:41;;;;;;;32.45;15.98;;;9.70;99.90;;;;;;5048169;28;20121;-80
2021/12/15 01:52:29;;;;;;;43.78;21.02;;;9.70;99.90;;;;;;5031472;28;20049;-79
2021/12/15 01:54:59;;;;;;;34.08;15.60;;;9.60;99.90;;;;;;5014314;28;20056;-82
2021/12/15 01:57:29;;;;;;;37.50;16.05;;;9.60;99.90;;;;;;5047222;28;20140;-82
2021/12/15 01:59:57;;;;;;;51.72;22.52;;;9.60;99.90;;;;;;5014701;28;20037;-79
2021/12/15 02:02:24;;;;;;;54.72;24.85;;;9.60;99.90;;;;;;5047493;28;20041;-79
2021/12/15 02:04:53;;;;;;;57.95;27.75;;;9.60;99.90;;;;;;5047821;28;20053;-83
2021/12/15 02:07:22;;;;;;;60.05;29.23;;;9.60;99.90;;;;;;5031205;28;20132;-79
2021/12/15 02:12:26;;;;;;;42.40;21.83;;;9.60;99.90;;;;;;5048355;28;20505;-82
2021/12/15 02:14:53;;;;;;;52.80;24.58;;;9.70;99.90;;;;;;5014505;28;20042;-82
2021/12/15 02:17:20;;;;;;;33.13;17.13;;;9.60;99.90;;;;;;5015324;28;20544;-82
2021/12/15 02:19:46;;;;;;;63.78;28.83;;;9.60;99.90;;;;;;5014600;28;20081;-79
2021/12/15 02:22:12;;;;;;;45.92;21.52;;;9.70;99.90;;;;;;5015045;28;20038;-82
2021/12/15 02:24:39;;;;;;;50.78;22.88;;;9.70;99.90;;;;;;5030915;28;20068;-79
2021/12/15 02:27:06;;;;;;;57.92;25.35;;;9.70;99.90;;;;;;5031278;28;20050;-79
2021/12/15 02:29:38;;;;;;;45.50;20.83;;;9.70;99.90;;;;;;5014197;28;20065;-79
2021/12/15 02:37:17;;;;;;;41.83;20.33;;;9.70;99.90;;;;;;5015178;28;20346;-79
2021/12/15 02:39:47;;;;;;;45.95;21.48;;;9.70;99.90;;;;;;5030115;28;20045;-79
2021/12/15 02:42:14;;;;;;;40.13;19.77;;;9.70;99.90;;;;;;5031184;28;20049;-79
2021/12/15 02:44:43;;;;;;;26.15;13.68;;;9.70;99.90;;;;;;5047214;28;20045;-82
2021/12/15 02:47:11;;;;;;;62.13;27.02;;;9.70;99.90;;;;;;5030775;28;20048;-79
2021/12/15 02:49:38;;;;;;;44.53;20.67;;;9.70;99.90;;;;;;5030930;28;20048;-79
2021/12/15 02:52:05;;;;;;;45.50;22.05;;;9.70;99.90;;;;;;5031252;28;20538;-82
2021/12/15 02:54:31;;;;;;;46.53;22.98;;;9.70;99.90;;;;;;5047175;28;20044;-79
2021/12/15 02:57:04;;;;;;;45.53;20.52;;;9.70;99.90;;;;;;5047812;28;20025;-82
2021/12/15 02:59:43;;;;;;;43.38;20.70;;;9.70;99.90;;;;;;5031426;28;20116;-79
2021/12/15 03:02:26;;;;;;;57.42;26.33;;;9.70;99.90;;;;;;5047779;28;20112;-83
2021/12/15 03:15:42;;;;;;;27.52;13.80;;;9.70;99.90;;;;;;5050758;28;20049;-79
2021/12/15 03:18:12;;;;;;;44.35;19.42;;;9.80;99.90;;;;;;5017779;28;20049;-82
2021/12/15 03:20:45;;;;;;;37.38;19.10;;;9.70;99.90;;;;;;5034403;28;20158;-78
2021/12/15 03:23:14;;;;;;;49.45;26.52;;;9.70;99.90;;;;;;5017652;28;20049;-79
2021/12/15 03:25:40;;;;;;;54.95;23.48;;;9.80;99.90;;;;;;5033562;28;20037;-79
2021/12/15 03:33:53;;;;;;;50.22;23.25;;;9.70;99.90;;;;;;5050626;28;20183;-79
2021/12/15 03:36:51;;;;;;;45.05;25.33;;;9.70;99.90;;;;;;5050285;28;20077;-80
2021/12/15 03:39:11;;;;;;;53.83;25.08;;;9.70;99.90;;;;;;5049163;28;20488;-82
2021/12/15 03:41:37;;;;;;;47.38;24.55;;;9.80;99.90;;;;;;5033646;28;20052;-82
2021/12/15 03:44:06;;;;;;;42.08;21.83;;;9.70;99.90;;;;;;5017282;28;20045;-79
2021/12/15 03:46:32;;;;;;;43.72;20.73;;;9.80;99.90;;;;;;5034000;28;20038;-79
2021/12/15 03:48:58;;;;;;;50.47;27.05;;;9.80;99.90;;;;;;5033463;28;20049;-82
2021/12/15 03:51:24;;;;;;;27.73;13.63;;;9.80;99.90;;;;;;5033827;28;20045;-79
2021/12/15 03:53:50;;;;;;;42.40;19.42;;;9.70;99.90;;;;;;5033455;28;20045;-79
2021/12/15 03:56:16;;;;;;;46.03;21.77;;;9.70;99.90;;;;;;5000545;28;20049;-82
2021/12/15 03:58:43;;;;;;;46.25;25.38;;;9.70;99.90;;;;;;5017051;28;20100;-80
2021/12/15 04:01:15;;;;;;;38.20;19.05;;;9.70;99.90;;;;;;5033509;28;20120;-81
2021/12/15 04:03:44;;;;;;;49.97;23.65;;;9.70;99.90;;;;;;5033298;28;20042;-82
2021/12/15 04:06:14;;;;;;;39.25;19.13;;;9.70;99.90;;;;;;5033341;28;20041;-78
2021/12/15 04:08:41;;;;;;;39.95;18.50;;;9.80;99.90;;;;;;5033146;28;20531;-79
2021/12/15 04:11:09;;;;;;;43.00;22.50;;;9.80;99.90;;;;;;5049541;28;20060;-82
2021/12/15 04:13:36;;;;;;;40.35;14.95;;;9.90;99.90;;;;;;5033090;28;20048;-80
2021/12/15 04:16:08;;;;;;;29.05;16.70;;;9.80;99.90;;;;;;5049347;28;20125;-81
2021/12/15 04:18:36;;;;;;;39.10;18.77;;;9.80;99.90;;;;;;5049846;28;20045;-82
2021/12/15 04:21:03;;;;;;;36.05;17.63;;;9.80;99.90;;;;;;5031781;28;20049;-79
2021/12/15 04:23:29;;;;;;;26.50;15.10;;;9.80;99.90;;;;;;5033283;28;20133;-82
2021/12/15 04:25:58;;;;;;;25.50;12.95;;;9.90;99.90;;;;;;5032452;28;20045;-82
2021/12/15 04:28:34;;;;;;;26.80;12.40;;;9.80;99.90;;;;;;5049053;28;20092;-79
2021/12/15 04:31:05;;;;;;;49.05;23.45;;;9.80;99.90;;;;;;5032716;28;20053;-82
2021/12/15 04:33:48;;;;;;;43.97;22.33;;;9.90;99.90;;;;;;5033341;28;20038;-79
2021/12/15 04:36:14;;;;;;;27.35;13.93;;;9.80;99.90;;;;;;5032404;28;20037;-80
2021/12/15 04:38:42;;;;;;;33.50;15.73;;;9.80;99.90;;;;;;5016740;28;20041;-79
2021/12/15 04:41:11;;;;;;;27.83;11.57;;;9.80;99.90;;;;;;5032031;28;20140;-82
2021/12/15 04:43:40;;;;;;;35.38;18.77;;;9.80;99.90;;;;;;5033113;28;20589;-83
2021/12/15 04:46:08;;;;;;;27.77;13.73;;;9.80;99.90;;;;;;5016192;28;20048;-79
2021/12/15 04:48:35;;;;;;;40.17;21.48;;;9.90;99.90;;;;;;5016060;28;20061;-82
2021/12/15 04:51:02;;;;;;;27.23;13.75;;;9.90;99.90;;;;;;4999562;28;20138;-78
2021/12/15 04:53:28;;;;;;;37.55;16.75;;;9.70;99.90;;;;;;5032777;28;20650;-81
2021/12/15 04:55:53;;;;;;;42.63;20.85;;;9.70;99.90;;;;;;5048384;28;20037;-79
2021/12/15 04:58:19;;;;;;;44.60;20.45;;;9.80;99.90;;;;;;5049156;28;20045;-82
2021/12/15 05:00:49;;;;;;;46.78;23.05;;;9.70;99.90;;;;;;5015722;28;20060;-82
2021/12/15 05:03:15;;;;;;;35.28;19.98;;;9.70;99.90;;;;;;5015975;28;20092;-82
2021/12/15 05:05:41;;;;;;;42.63;18.35;;;9.70;99.90;;;;;;5031707;28;20045;-82
2021/12/15 05:08:07;;;;;;;33.83;16.33;;;9.80;99.90;;;;;;5031847;28;20049;-78
2021/12/15 05:10:34;;;;;;;47.35;23.23;;;9.70;99.90;;;;;;5048399;28;20167;-79
2021/12/15 05:13:00;;;;;;;36.22;17.52;;;9.70;99.90;;;;;;5048567;28;20124;-81
2021/12/15 05:15:26;;;;;;;37.92;18.30;;;9.70;99.90;;;;;;5015364;28;20483;-82
2021/12/15 05:17:52;;;;;;;42.90;19.67;;;9.70;99.90;;;;;;5015864;28;20044;-80
2021/12/15 05:20:18;;;;;;;37.30;17.17;;;9.80;99.90;;;;;;5015862;28;20128;-82
2021/12/15 05:22:44;;;;;;;48.38;22.58;;;9.80;99.90;;;;;;5032095;28;20437;-81
2021/12/15 05:25:11;;;;;;;52.15;25.75;;;9.70;99.90;;;;;;5015331;28;20037;-82
2021/12/15 05:27:39;;;;;;;40.05;17.80;;;9.70;99.90;;;;;;5048230;28;20049;-79
2021/12/15 05:30:12;;;;;;;32.38;16.65;;;9.80;99.90;;;;;;5032151;28;20053;-82
2021/12/15 05:32:38;;;;;;;36.72;20.02;;;9.70;99.90;;;;;;5031660;28;20049;-79
2021/12/15 05:35:05;;;;;;;35.40;16.48;;;9.70;99.90;;;;;;5032312;28;20101;-81
2021/12/15 05:37:31;;;;;;;34.47;16.83;;;9.70;99.90;;;;;;5048458;28;20076;-79
2021/12/15 05:39:57;;;;;;;35.15;16.98;;;9.70;99.90;;;;;;5032010;28;20136;-82
2021/12/15 05:42:25;;;;;;;27.42;14.82;;;9.70;99.90;;;;;;5032233;28;20518;-79
2021/12/15 05:44:51;;;;;;;51.05;22.98;;;9.70;99.90;;;;;;5048857;28;20072;-79
2021/12/15 05:47:18;;;;;;;46.03;23.95;;;9.80;99.90;;;;;;5048593;28;20045;-81
2021/12/15 05:49:44;;;;;;;40.35;21.42;;;9.70;99.90;;;;;;5048526;28;20041;-79
2021/12/15 05:52:11;;;;;;;41.78;19.00;;;9.70;99.90;;;;;;5048728;28;20037;-81
2021/12/15 05:54:37;;;;;;;31.75;16.70;;;9.70;99.90;;;;;;5031820;28;20049;-79
2021/12/15 05:57:04;;;;;;;47.92;22.75;;;9.70;99.90;;;;;;4999385;28;20042;-78
2021/12/15 05:59:30;;;;;;;35.08;17.70;;;9.70;99.90;;;;;;5031771;28;20045;-79
2021/12/15 06:01:55;;;;;;;36.03;14.82;;;9.70;99.90;;;;;;5031613;28;20041;-78
2021/12/15 06:04:21;;;;;;;41.05;17.67;;;9.80;99.90;;;;;;5015486;28;20041;-82
2021/12/15 06:06:47;;;;;;;30.60;13.90;;;9.80;99.90;;;;;;5048157;28;20553;-78
2021/12/15 06:09:14;;;;;;;27.77;12.27;;;9.70;99.90;;;;;;5014934;28;20045;-82
2021/12/15 06:11:41;;;;;;;38.97;18.98;;;9.80;99.90;;;;;;5031885;28;20033;-81
2021/12/15 06:14:08;;;;;;;31.25;16.73;;;9.70;99.90;;;;;;5048329;28;20104;-78
2021/12/15 06:16:35;;;;;;;34.28;15.00;;;9.70;99.90;;;;;;5048347;28;20111;-82
2021/12/15 06:19:02;;;;;;;29.20;15.70;;;9.70;99.90;;;;;;5048426;28;20397;-79
2021/12/15 06:21:29;;;;;;;31.33;18.65;;;9.80;99.90;;;;;;5048381;28;20132;-79
2021/12/15 06:23:54;;;;;;;31.85;16.33;;;9.70;99.90;;;;;;4998651;28;20052;-79
2021/12/15 06:26:20;;;;;;;39.88;19.00;;;9.70;99.90;;;;;;5048318;28;20041;-82
2021/12/15 06:28:47;;;;;;;31.88;14.57;;;9.80;99.90;;;;;;5047742;28;20057;-82
2021/12/15 06:31:15;;;;;;;55.20;24.73;;;9.70;99.90;;;;;;5048253;28;20176;-79
2021/12/15 06:33:42;;;;;;;26.05;13.05;;;9.70;99.90;;;;;;5031228;28;20049;-78
2021/12/15 06:36:12;;;;;;;51.88;21.17;;;9.70;99.90;;;;;;5031690;28;20716;-81
2021/12/15 06:38:45;;;;;;;29.80;15.45;;;9.70;99.90;;;;;;5031096;28;20068;-78
2021/12/15 06:41:12;;;;;;;50.95;23.13;;;9.80;99.90;;;;;;5031297;28;20076;-79
2021/12/15 06:43:39;;;;;;;33.58;14.90;;;9.70;99.90;;;;;;5047953;28;20541;-79
2021/12/15 06:46:33;;;;;;;29.42;14.82;;;9.70;99.90;;;;;;5035719;28;20503;-82
2021/12/15 06:59:51;;;;;;;42.03;18.20;;;9.70;99.90;;;;;;5037797;28;20452;-82
2021/12/15 07:02:17;;;;;;;35.60;16.67;;;9.80;99.90;;;;;;5035018;28;20040;-82
2021/12/15 07:04:42;;;;;;;35.38;16.85;;;9.70;99.90;;;;;;5051472;28;20103;-81
2021/12/15 07:07:08;;;;;;;22.10;10.40;;;9.70;99.90;;;;;;5018261;28;20404;-80
2021/12/15 07:09:34;;;;;;;43.20;18.67;;;9.70;99.90;;;;;;5001715;28;20103;-79
2021/12/15 07:12:02;;;;;;;45.55;20.98;;;9.70;99.90;;;;;;5051334;28;20495;-82
2021/12/15 07:14:28;;;;;;;36.47;16.20;;;9.70;99.90;;;;;;5034575;28;20104;-82
2021/12/15 07:16:55;;;;;;;28.88;12.23;;;9.80;99.90;;;;;;5034616;28;20085;-81
2021/12/15 07:22:06;;;;;;;40.35;18.33;;;9.80;99.90;;;;;;5035531;28;20053;-79
2021/12/15 07:24:33;;;;;;;47.63;19.00;;;9.80;99.90;;;;;;5051436;28;20369;-82
2021/12/15 07:27:00;;;;;;;29.98;13.45;;;9.80;99.90;;;;;;5051341;28;20045;-79
2021/12/15 07:29:28;;;;;;;37.20;17.23;;;9.70;99.90;;;;;;5050562;28;20046;-81
2021/12/15 07:31:54;;;;;;;30.05;12.10;;;9.70;99.90;;;;;;5034371;28;20049;-78
2021/12/15 07:34:20;;;;;;;34.78;18.10;;;9.70;99.90;;;;;;5034359;28;20050;-82
2021/12/15 07:36:45;;;;;;;25.48;10.70;;;9.70;99.90;;;;;;5034357;28;20057;-78
2021/12/15 07:39:12;;;;;;;29.00;13.70;;;9.70;99.90;;;;;;5001462;28;20038;-82
2021/12/15 07:41:49;;;;;;;31.02;17.17;;;9.70;99.90;;;;;;5050481;28;20380;-79
2021/12/15 07:44:15;;;;;;;19.55;10.13;;;9.70;99.90;;;;;;5050778;28;20052;-82
2021/12/15 07:46:43;;;;;;;25.77;11.73;;;9.70;99.90;;;;;;5032905;28;20053;-79
2021/12/15 07:49:09;;;;;;;23.60;10.70;;;9.70;99.90;;;;;;5033569;28;20048;-79
2021/12/15 07:51:34;;;;;;;36.13;15.02;;;9.70;99.90;;;;;;5033295;28;20041;-82
2021/12/15 07:54:00;;;;;;;30.88;12.43;;;9.70;99.90;;;;;;5001144;28;20095;-78
2021/12/15 07:56:26;;;;;;;27.83;14.30;;;9.70;99.90;;;;;;5016759;28;20038;-79
2021/12/15 07:58:52;;;;;;;35.83;15.77;;;9.70;99.90;;;;;;5015540;28;20072;-79
2021/12/15 08:01:20;;;;;;;23.65;11.65;;;9.60;99.90;;;;;;5015904;28;20045;-79
2021/12/15 08:03:51;;;;;;;27.90;10.70;;;9.60;99.90;;;;;;5032976;28;20084;-79
2021/12/15 08:06:18;;;;;;;34.92;14.63;;;9.60;99.90;;;;;;5033035;28;20114;-82
2021/12/15 08:08:44;;;;;;;24.00;12.77;;;9.60;99.90;;;;;;5033300;28;20046;-79
2021/12/15 08:11:10;;;;;;;20.92;10.23;;;9.50;99.90;;;;;;5017152;28;20037;-82
2021/12/15 08:13:37;;;;;;;33.42;14.25;;;9.60;99.90;;;;;;5048977;28;20048;-82
2021/12/15 08:16:03;;;;;;;26.85;12.55;;;9.60;99.90;;;;;;5049004;28;20041;-79
2021/12/15 08:18:29;;;;;;;26.75;10.90;;;9.60;99.90;;;;;;4998957;28;20072;-79
2021/12/15 08:20:56;;;;;;;27.42;12.25;;;9.60;99.90;;;;;;5015673;28;20126;-79
2021/12/15 08:23:23;;;;;;;21.33;8.10;;;9.50;99.90;;;;;;5048456;28;20439;-82
2021/12/15 08:25:49;;;;;;;23.35;10.38;;;9.50;99.90;;;;;;5031356;28;20123;-82
2021/12/15 08:28:16;;;;;;;25.08;10.73;;;9.50;99.90;;;;;;5014841;28;20062;-79
2021/12/15 08:30:45;;;;;;;24.27;10.30;;;9.40;99.90;;;;;;5032123;28;20143;-82
2021/12/15 08:33:16;;;;;;;25.77;12.05;;;9.40;99.90;;;;;;5048675;28;20388;-82
2021/12/15 08:35:53;;;;;;;14.98;6.22;;;9.40;99.90;;;;;;5032060;28;20245;-82
2021/12/15 08:38:20;;;;;;;25.20;11.55;;;9.50;99.90;;;;;;5030247;28;20037;-82
2021/12/15 08:40:48;;;;;;;20.58;9.40;;;9.50;99.90;;;;;;5015288;28;20044;-79
2021/12/15 08:43:15;;;;;;;12.35;5.90;;;9.60;99.90;;;;;;5030882;28;20045;-82
2021/12/15 08:45:46;;;;;;;20.75;9.77;;;9.50;99.90;;;;;;5014868;28;20064;-78
2021/12/15 08:48:12;;;;;;;23.77;10.38;;;9.50;99.90;;;;;;5030386;28;20041;-82
2021/12/15 08:50:41;;;;;;;30.00;15.02;;;9.50;99.90;;;;;;5014714;28;20042;-79
2021/12/15 08:53:10;;;;;;;22.00;7.75;;;9.50;99.90;;;;;;5012036;28;20148;-81
2021/12/15 08:55:41;;;;;;;29.70;14.48;;;9.60;99.90;;;;;;5015291;28;20046;-82
2021/12/15 08:58:10;;;;;;;24.42;11.27;;;9.60;99.90;;;;;;5015558;28;20077;-81
2021/12/15 09:00:37;;;;;;;19.45;8.95;;;9.60;99.90;;;;;;5015446;28;20041;-82
2021/12/15 09:03:03;;;;;;;20.08;9.93;;;9.60;99.90;;;;;;5032389;28;20058;-79
2021/12/15 09:05:29;;;;;;;24.63;11.70;;;9.60;99.90;;;;;;5048537;28;20037;-82
2021/12/15 09:07:57;;;;;;;28.30;12.90;;;9.70;99.90;;;;;;5048043;28;20389;-79
2021/12/15 09:10:25;;;;;;;19.63;10.50;;;9.60;99.90;;;;;;5031198;28;20067;-79
2021/12/15 09:12:51;;;;;;;25.60;13.40;;;9.70;99.90;;;;;;5030698;28;20048;-79
2021/12/15 09:15:17;;;;;;;36.22;16.67;;;9.70;99.90;;;;;;5031509;28;20045;-80
2021/12/15 09:17:44;;;;;;;29.77;14.50;;;9.70;99.90;;;;;;5031904;28;20074;-79
2021/12/15 09:20:14;;;;;;;26.80;12.95;;;9.70;99.90;;;;;;5032017;28;20045;-81
2021/12/15 09:22:40;;;;;;;27.30;10.18;;;9.80;99.90;;;;;;5031927;28;20107;-79
2021/12/15 09:25:09;;;;;;;21.38;10.27;;;9.90;99.90;;;;;;5032346;28;20088;-79
2021/12/15 09:27:35;;;;;;;15.80;7.47;;;10.00;99.90;;;;;;5032347;28;20045;-79
2021/12/15 09:30:04;;;;;;;26.05;12.50;;;10.00;99.90;;;;;;5031999;28;20053;-82
2021/12/15 09:32:30;;;;;;;22.38;12.43;;;10.00;99.90;;;;;;5031494;28;20049;-82
2021/12/15 09:34:55;;;;;;;24.23;10.75;;;9.90;99.90;;;;;;5015419;28;20037;-82
2021/12/15 09:37:21;;;;;;;30.42;13.27;;;10.00;99.90;;;;;;5031781;28;20560;-79
2021/12/15 09:39:47;;;;;;;24.02;11.85;;;9.90;99.90;;;;;;5031837;28;20041;-79
2021/12/15 09:42:17;;;;;;;22.48;11.30;;;9.90;99.90;;;;;;5031674;28;20042;-81
2021/12/15 09:44:44;;;;;;;22.52;11.02;;;10.00;99.90;;;;;;5012114;28;20050;-79
2021/12/15 09:47:37;;;;;;;18.45;8.63;;;9.90;99.90;;;;;;5030665;28;20087;-79
2021/12/15 10:04:29;;;;;;;19.42;8.50;;;9.90;99.90;;;;;;5019857;28;20049;-82
2021/12/15 10:12:35;;;;;;;17.38;7.10;;;10.00;99.90;;;;;;5031185;28;20060;-79
2021/12/15 10:18:03;;;;;;;13.57;5.80;;;10.10;99.90;;;;;;5017782;28;20518;-79
2021/12/15 10:20:31;;;;;;;17.60;5.45;;;10.10;99.90;;;;;;5051237;28;20061;-82
2021/12/15 10:23:02;;;;;;;13.00;5.65;;;10.20;99.90;;;;;;5052459;28;20045;-79
2021/12/15 10:25:48;;;;;;;11.35;5.00;;;10.20;99.90;;;;;;5052478;28;20055;-82
2021/12/15 10:28:15;;;;;;;11.00;4.63;;;10.20;99.90;;;;;;5051702;28;20132;-82
2021/12/15 10:30:55;;;;;;;9.02;3.95;;;10.10;99.90;;;;;;5052093;28;20058;-79
2021/12/15 10:33:31;;;;;;;12.80;4.25;;;10.20;99.90;;;;;;5018903;28;20041;-82
2021/12/15 10:36:06;;;;;;;11.48;5.60;;;10.10;99.90;;;;;;5051961;28;20124;-79
2021/12/15 10:38:41;;;;;;;12.68;5.65;;;10.20;99.90;;;;;;5018742;28;20041;-79
2021/12/15 10:41:18;;;;;;;12.82;6.35;;;10.20;99.90;;;;;;5052164;28;20396;-79
2021/12/15 10:43:56;;;;;;;12.52;5.07;;;10.30;99.90;;;;;;5018854;28;20049;-79
2021/12/15 10:46:28;;;;;;;9.27;4.75;;;10.20;99.90;;;;;;5018735;28;20037;-82
2021/12/15 10:49:05;;;;;;;15.25;6.10;;;10.20;99.90;;;;;;5018496;28;20060;-82
2021/12/15 10:51:37;;;;;;;12.93;5.43;;;10.30;99.90;;;;;;5035113;28;20053;-79
2021/12/15 10:54:13;;;;;;;8.93;4.47;;;10.30;99.90;;;;;;5018558;28;20050;-79
2021/12/15 10:56:51;;;;;;;9.85;4.97;;;10.40;99.90;;;;;;5034995;28;20053;-80
2021/12/15 10:59:17;;;;;;;12.32;4.90;;;10.40;99.90;;;;;;5018575;28;20048;-82
2021/12/15 11:01:48;;;;;;;14.50;4.85;;;10.40;99.90;;;;;;5051458;28;20041;-79
2021/12/15 11:04:23;;;;;;;7.05;4.05;;;10.40;99.90;;;;;;5018428;28;20128;-82
2021/12/15 11:07:09;;;;;;;11.20;3.60;;;10.40;99.90;;;;;;5051326;28;20053;-84
2021/12/15 11:10:10;;;;;;;12.75;5.75;;;10.40;99.90;;;;;;5014131;28;20496;-83
2021/12/15 11:12:46;;;;;;;7.28;3.63;;;10.40;99.90;;;;;;5030853;28;20488;-83
2021/12/15 11:15:22;;;;;;;8.80;4.18;;;10.40;99.90;;;;;;5034640;28;20085;-80
2021/12/15 11:17:59;;;;;;;9.43;4.97;;;10.40;99.90;;;;;;5051370;28;20506;-79
2021/12/15 11:20:38;;;;;;;8.13;3.95;;;10.40;99.90;;;;;;5051484;28;20399;-79
2021/12/15 11:23:15;;;;;;;14.90;4.03;;;10.40;99.90;;;;;;5051205;28;20041;-82
2021/12/15 11:25:46;;;;;;;12.27;4.32;;;10.30;99.90;;;;;;5034560;28;20125;-79
2021/12/15 11:28:17;;;;;;;14.75;5.50;;;10.30;99.90;;;;;;5050712;28;20045;-79
2021/12/15 11:31:06;;;;;;;11.73;5.38;;;10.20;99.90;;;;;;5034026;28;20127;-82
2021/12/15 11:33:38;;;;;;;8.38;4.20;;;10.20;99.90;;;;;;5017820;28;20048;-82
2021/12/15 11:36:17;;;;;;;8.07;3.75;;;10.10;99.90;;;;;;5018155;28;20049;-80
2021/12/15 11:38:52;;;;;;;12.30;5.70;;;10.20;99.90;;;;;;5050656;28;20089;-82
2021/12/15 11:41:29;;;;;;;12.00;4.70;;;10.20;99.90;;;;;;5050941;28;20053;-82
2021/12/15 11:43:56;;;;;;;8.10;3.92;;;10.20;99.90;;;;;;5051163;28;20046;-82
2021/12/15 11:46:34;;;;;;;6.75;3.55;;;10.20;99.90;;;;;;5017633;28;20042;-82
2021/12/15 11:49:16;;;;;;;19.17;3.35;;;10.30;99.90;;;;;;5017651;28;20465;-80
2021/12/15 11:52:24;;;;;;;6.35;3.45;;;10.30;99.90;;;;;;5050645;28;20045;-80
2021/12/15 11:54:50;;;;;;;6.30;3.35;;;10.40;99.90;;;;;;5016198;28;20076;-83
2021/12/15 11:57:28;;;;;;;8.55;2.72;;;10.40;99.90;;;;;;5017511;28;20053;-83
2021/12/15 12:00:10;;;;;;;11.80;2.88;;;10.30;99.90;;;;;;5017582;28;20049;-80
2021/12/15 12:02:39;;;;;;;6.97;2.92;;;10.20;99.90;;;;;;5033791;28;20049;-83
2021/12/15 12:05:12;;;;;;;13.55;3.70;;;10.30;99.90;;;;;;5017460;28;20536;-80
2021/12/15 12:07:57;;;;;;;;;;;10.20;99.90;;;;;;5051240;28;20045;-82
2021/12/15 12:10:32;;;;;;;7.22;2.28;;;10.20;99.90;;;;;;5033900;28;20391;-82
2021/12/15 12:13:09;;;;;;;7.63;2.47;;;10.30;99.90;;;;;;5050490;28;20504;-80
2021/12/15 12:15:42;;;;;;;18.58;3.13;;;10.20;99.90;;;;;;5033767;28;20103;-82
2021/12/15 12:18:19;;;;;;;6.22;3.10;;;10.20;99.90;;;;;;5050611;28;20081;-80
2021/12/15 12:20:54;;;;;;;4.40;1.33;;;10.20;99.90;;;;;;5033145;28;20107;-82
2021/12/15 12:23:27;;;;;;;12.15;2.38;;;10.30;99.90;;;;;;5032673;28;20117;-80
2021/12/15 12:26:05;;;;;;;5.93;2.35;;;10.30;99.90;;;;;;5032493;28;20377;-81
2021/12/15 12:28:36;;;;;;;7.50;2.10;;;10.30;99.90;;;;;;5015967;28;20062;-80
2021/12/15 12:31:06;;;;;;;6.47;1.58;;;10.30;99.90;;;;;;5032890;28;20049;-82
2021/12/15 12:33:32;;;;;;;12.35;2.20;;;10.70;99.90;;;;;;5032237;28;20041;-80
2021/12/15 12:36:12;;;;;;;2.38;0.88;;;10.40;99.90;;;;;;5035013;28;20053;-82
2021/12/15 12:38:40;;;;;;;3.30;1.08;;;10.30;99.90;;;;;;5048246;28;20252;-80
2021/12/15 12:41:15;;;;;;;4.07;1.52;;;10.40;99.90;;;;;;5031751;28;20046;-83
2021/12/15 12:43:50;;;;;;;3.72;1.20;;;10.40;99.90;;;;;;5015039;28;20124;-82
2021/12/15 12:46:28;;;;;;;2.53;0.85;;;10.40;99.90;;;;;;5028135;28;20034;-79
2021/12/15 13:00:34;;;;;;;5.15;1.00;;;10.80;45.20;;;;;;5031362;28;20042;-83
2021/12/15 13:03:12;;;;;;;8.23;1.15;;;10.80;28.10;;;;;;5032210;28;20538;-80
2021/12/15 13:05:49;;;;;;;0.98;0.43;;;10.80;38.80;;;;;;5031203;28;20037;-83
2021/12/15 13:08:40;;;;;;;4.70;0.88;;;10.80;25.50;;;;;;5031197;28;20049;-80
2021/12/15 13:11:23;;;;;;;4.75;1.02;;;10.90;19.60;;;;;;5046060;28;20495;-80
2021/12/15 13:14:03;;;;;;;3.78;0.80;;;10.90;19.40;;;;;;5031534;28;20053;-80
2021/12/15 13:16:30;;;;;;;2.95;0.70;;;11.00;6.40;;;;;;5031165;28;20044;-82
2021/12/15 13:19:01;;;;;;;4.68;0.90;;;11.10;7.90;;;;;;5048893;28;20484;-80
2021/12/15 13:30:50;;;;;;;4.45;1.00;;;11.20;1.00;;;;;;5047730;28;20131;-81
2021/12/15 13:33:36;;;;;;;4.82;0.82;;;11.20;1.00;;;;;;5048266;28;20049;-80
2021/12/15 13:36:05;;;;;;;2.70;0.93;;;11.10;1.00;;;;;;5048088;28;20562;-80
2021/12/15 13:38:53;;;;;;;4.18;0.80;;;11.00;1.00;;;;;;5031734;28;20081;-83
2021/12/15 13:41:40;;;;;;;2.45;0.90;;;10.90;1.00;;;;;;5028074;28;20514;-80
2021/12/15 13:44:18;;;;;;;2.72;0.90;;;10.90;1.00;;;;;;5015167;28;20076;-80
2021/12/15 13:46:49;;;;;;;4.47;1.00;;;10.90;1.00;;;;;;5047174;28;20511;-80
2021/12/15 13:49:46;;;;;;;5.53;0.68;;;10.90;1.00;;;;;;5031576;28;20051;-82
2021/12/15 13:52:37;;;;;;;2.78;0.70;;;10.80;1.00;;;;;;5013551;28;20053;-83
2021/12/15 13:55:05;;;;;;;4.28;0.85;;;10.70;1.00;;;;;;5031478;28;20050;-80
2021/12/15 13:57:39;;;;;;;1.25;0.52;;;10.40;4.60;;;;;;5047569;28;20052;-82
2021/12/15 14:00:25;;;;;;;4.15;1.05;;;10.20;1.00;;;;;;5014637;28;20073;-82
2021/12/15 14:02:57;;;;;;;4.20;0.50;;;9.60;39.20;;;;;;5031131;28;20053;-83
2021/12/15 14:05:29;;;;;;;3.85;0.60;;;9.20;93.50;;;;;;5015082;28;20087;-80
2021/12/15 14:08:05;;;;;;;3.22;1.02;;;9.00;99.90;;;;;;5014933;28;20054;-82
2021/12/15 14:10:33;;;;;;;4.82;0.90;;;8.80;99.90;;;;;;5031572;28;20042;-80
2021/12/15 14:13:02;;;;;;;5.65;1.08;;;8.70;99.90;;;;;;5031714;28;20503;-81
2021/12/15 14:15:43;;;;;;;0.85;0.63;;;8.60;99.90;;;;;;5015180;28;20407;-79
2021/12/15 14:18:20;;;;;;;5.20;1.42;;;8.50;99.90;;;;;;5031305;28;20056;-79
2021/12/15 14:20:49;;;;;;;3.28;0.82;;;8.60;99.90;;;;;;5031722;28;20103;-82
2021/12/15 14:23:21;;;;;;;3.95;0.77;;;8.60;99.90;;;;;;5031619;28;20089;-82
2021/12/15 14:25:48;;;;;;;1.67;0.52;;;8.80;99.90;;;;;;5015119;28;20038;-79
2021/12/15 14:28:18;;;;;;;5.35;1.90;;;8.90;99.90;;;;;;5031512;28;20496;-79